createdAt,value
2023-05-08T00:00:21.664Z,16.81
2023-05-08T00:03:25.505Z,16.52
2023-05-08T00:06:30.858Z,16.73
2023-05-08T00:09:34.690Z,16.43
2023-05-08T00:12:38.701Z,16.55
2023-05-08T00:15:42.417Z,16.45
2023-05-08T00:18:46.185Z,16.53
2023-05-08T00:21:51.415Z,16.49
2023-05-08T00:24:55.138Z,16.25
2023-05-08T00:27:58.938Z,16.41
2023-05-08T00:31:03.400Z,16.23
2023-05-08T00:34:07.856Z,16.21
2023-05-08T00:37:12.911Z,16.38
2023-05-08T00:40:16.517Z,16.44
2023-05-08T00:43:25.867Z,16.38
2023-05-08T00:46:29.649Z,16.27
2023-05-08T00:49:35.845Z,16.25
2023-05-08T00:52:41.721Z,16.14
2023-05-08T00:55:46.018Z,16.03
2023-05-08T00:58:50.147Z,16.20
2023-05-08T01:01:54.549Z,16.43
2023-05-08T01:04:58.622Z,16.75
2023-05-08T01:08:04.186Z,16.41
2023-05-08T01:11:17.229Z,16.46
2023-05-08T01:14:27.694Z,16.57
2023-05-08T01:17:43.554Z,16.46
2023-05-08T01:20:57.089Z,16.50
2023-05-08T01:24:27.098Z,16.50
2023-05-08T01:27:53.651Z,16.46
2023-05-08T01:31:18.762Z,16.44
2023-05-08T01:34:26.406Z,16.30
2023-05-08T01:37:36.138Z,16.39
2023-05-08T01:40:51.727Z,16.35
2023-05-08T01:44:07.648Z,16.30
2023-05-08T01:47:13.593Z,16.54
2023-05-08T01:50:23.765Z,16.48
2023-05-08T01:53:31.931Z,16.03
2023-05-08T01:56:39.260Z,16.37
2023-05-08T01:59:44.354Z,16.08
2023-05-08T02:02:49.709Z,16.02
2023-05-08T02:05:58.340Z,16.11
2023-05-08T02:09:03.367Z,15.90
2023-05-08T02:12:09.326Z,15.87
2023-05-08T02:15:15.370Z,15.81
2023-05-08T02:18:22.575Z,15.91
2023-05-08T02:21:29.083Z,16.09
2023-05-08T02:24:35.390Z,15.93
2023-05-08T02:27:41.144Z,16.15
2023-05-08T02:30:47.507Z,16.14
2023-05-08T02:33:53.361Z,16.25
2023-05-08T02:37:00.969Z,15.90
2023-05-08T02:40:07.587Z,15.81
2023-05-08T02:43:11.599Z,15.98
2023-05-08T02:46:18.584Z,16.04
2023-05-08T02:49:31.400Z,15.69
2023-05-08T02:52:46.214Z,15.65
2023-05-08T02:55:53.819Z,15.68
2023-05-08T02:59:06.153Z,15.83
2023-05-08T03:02:13.925Z,15.79
2023-05-08T03:05:20.929Z,15.77
2023-05-08T03:08:31.158Z,15.70
2023-05-08T03:11:42.001Z,15.71
2023-05-08T03:14:54.575Z,15.68
2023-05-08T03:18:02.278Z,15.98
2023-05-08T03:21:08.775Z,15.85
2023-05-08T03:24:19.026Z,15.88
2023-05-08T03:27:24.145Z,15.85
2023-05-08T03:30:29.024Z,15.91
2023-05-08T03:33:44.004Z,15.99
2023-05-08T03:36:48.124Z,16.16
2023-05-08T03:39:54.380Z,16.16
2023-05-08T03:42:58.514Z,16.38
2023-05-08T03:46:03.150Z,16.47
2023-05-08T03:49:09.584Z,16.18
2023-05-08T03:52:13.721Z,16.46
2023-05-08T03:55:19.632Z,16.22
2023-05-08T03:58:28.125Z,16.13
2023-05-08T04:01:41.094Z,16.53
2023-05-08T04:04:52.077Z,16.86
2023-05-08T04:08:05.210Z,17.17
2023-05-08T04:11:17.659Z,17.43
2023-05-08T04:14:27.562Z,17.78
2023-05-08T04:17:40.879Z,18.04
2023-05-08T04:20:49.714Z,18.07
2023-05-08T04:23:54.911Z,17.64
2023-05-08T04:27:01.763Z,17.76
2023-05-08T04:30:08.080Z,17.73
2023-05-08T04:33:13.269Z,17.68
2023-05-08T04:36:16.916Z,18.06
2023-05-08T04:39:22.769Z,17.80
2023-05-08T04:42:28.773Z,18.73
2023-05-08T04:45:35.349Z,18.90
2023-05-08T04:48:39.346Z,18.70
2023-05-08T04:51:44.219Z,19.10
2023-05-08T04:54:48.008Z,18.78
2023-05-08T04:57:53.511Z,19.18
2023-05-08T05:00:57.427Z,18.46
2023-05-08T05:04:01.485Z,18.64
2023-05-08T05:07:05.500Z,19.04
2023-05-08T05:10:10.538Z,19.10
2023-05-08T05:13:15.848Z,19.38
2023-05-08T05:16:20.496Z,19.43
2023-05-08T05:19:24.428Z,20.07
2023-05-08T05:22:29.035Z,20.05
2023-05-08T05:25:32.908Z,20.58
2023-05-08T05:28:38.443Z,20.91
2023-05-08T05:31:43.063Z,20.81
2023-05-08T05:34:48.085Z,20.89
2023-05-08T05:37:52.168Z,20.63
2023-05-08T05:40:56.322Z,20.93
2023-05-08T05:44:01.540Z,20.79
2023-05-08T05:47:06.486Z,21.03
2023-05-08T05:50:11.525Z,20.69
2023-05-08T05:53:15.652Z,20.81
2023-05-08T05:56:19.439Z,20.01
2023-05-08T05:59:24.694Z,20.70
2023-05-08T06:02:28.674Z,20.39
2023-05-08T06:05:32.989Z,20.86
2023-05-08T06:08:36.922Z,20.89
2023-05-08T06:11:40.877Z,21.31
2023-05-08T06:14:46.546Z,21.23
2023-05-08T06:17:52.077Z,21.32
2023-05-08T06:20:59.223Z,21.29
2023-05-08T06:24:03.998Z,21.13
2023-05-08T06:27:07.888Z,21.66
2023-05-08T06:30:14.140Z,21.57
2023-05-08T06:33:18.052Z,21.88
2023-05-08T06:36:22.430Z,22.28
2023-05-08T06:39:26.531Z,22.11
2023-05-08T06:42:30.369Z,22.40
2023-05-08T06:45:35.531Z,22.34
2023-05-08T06:48:39.745Z,22.22
2023-05-08T06:51:43.656Z,22.66
2023-05-08T06:54:47.443Z,23.04
2023-05-08T06:57:51.392Z,22.96
2023-05-08T07:00:56.622Z,22.95
2023-05-08T07:04:00.994Z,22.89
2023-05-08T07:07:07.107Z,23.04
2023-05-08T07:10:11.780Z,22.92
2023-05-08T07:13:15.658Z,22.73
2023-05-08T07:16:21.007Z,23.31
2023-05-08T07:19:25.257Z,23.58
2023-05-08T07:22:29.031Z,23.39
2023-05-08T07:25:32.884Z,23.55
2023-05-08T07:28:36.676Z,23.61
2023-05-08T07:31:42.814Z,23.71
2023-05-08T07:34:46.558Z,23.72
2023-05-08T07:37:50.360Z,23.75
2023-05-08T07:40:57.502Z,24.35
2023-05-08T07:44:01.432Z,24.50
2023-05-08T07:47:07.196Z,24.27
2023-05-08T07:50:12.035Z,24.68
2023-05-08T07:53:15.828Z,24.70
2023-05-08T07:56:19.642Z,24.55
2023-05-08T07:59:23.492Z,24.08
2023-05-08T08:02:28.887Z,24.62
2023-05-08T08:05:32.816Z,24.45
2023-05-08T08:08:36.554Z,23.12
2023-05-08T08:11:40.420Z,23.82
2023-05-08T08:14:44.189Z,24.48
2023-05-08T08:17:49.530Z,24.13
2023-05-08T08:20:53.353Z,24.47
2023-05-08T08:23:57.318Z,24.30
2023-05-08T08:27:01.172Z,24.25
2023-05-08T08:30:16.175Z,24.46
2023-05-08T08:33:22.803Z,24.36
2023-05-08T08:36:26.693Z,24.77
2023-05-08T08:39:34.765Z,24.86
2023-05-08T08:42:38.711Z,25.38
2023-05-08T08:45:42.452Z,25.23
2023-05-08T08:48:48.978Z,25.12
2023-05-08T08:51:56.075Z,25.52
2023-05-08T08:55:02.652Z,25.80
2023-05-08T08:58:16.741Z,25.61
2023-05-08T09:01:22.302Z,25.49
2023-05-08T09:04:29.848Z,25.92
2023-05-08T09:07:34.844Z,25.74
2023-05-08T09:10:38.885Z,26.03
2023-05-08T09:13:42.716Z,25.05
2023-05-08T09:16:47.051Z,25.55
2023-05-08T09:19:53.959Z,26.15
2023-05-08T09:22:59.060Z,26.34
2023-05-08T09:26:03.074Z,26.25
2023-05-08T09:29:10.991Z,26.30
2023-05-08T09:32:20.140Z,26.60
2023-05-08T09:35:38.127Z,26.85
2023-05-08T09:38:44.309Z,27.45
2023-05-08T09:42:00.221Z,26.84
2023-05-08T09:45:04.053Z,27.16
2023-05-08T09:48:08.253Z,26.60
2023-05-08T09:51:13.807Z,25.62
2023-05-08T09:54:19.839Z,26.53
2023-05-08T09:57:23.621Z,26.53
2023-05-08T10:00:29.109Z,26.69
2023-05-08T10:03:48.489Z,26.91
2023-05-08T10:07:01.526Z,27.18
2023-05-08T10:10:06.813Z,26.59
2023-05-08T10:13:10.691Z,27.03
2023-05-08T10:16:17.389Z,27.53
2023-05-08T10:19:23.098Z,27.75
2023-05-08T10:22:29.793Z,27.46
2023-05-08T10:25:36.619Z,26.94
2023-05-08T10:28:46.254Z,26.89
2023-05-08T10:31:55.848Z,27.27
2023-05-08T10:35:01.482Z,27.53
2023-05-08T10:38:10.146Z,27.22
2023-05-08T10:41:15.205Z,27.66
2023-05-08T10:44:20.798Z,27.26
2023-05-08T10:47:29.504Z,27.50
2023-05-08T10:50:48.029Z,28.17
2023-05-08T10:53:58.663Z,27.55
2023-05-08T10:57:11.433Z,27.42
2023-05-08T11:00:16.263Z,27.20
2023-05-08T11:03:31.441Z,27.41
2023-05-08T11:06:47.298Z,27.46
2023-05-08T11:09:53.237Z,27.70
2023-05-08T11:12:57.583Z,27.94
2023-05-08T11:16:01.820Z,27.85
2023-05-08T11:19:19.239Z,28.10
2023-05-08T11:22:26.254Z,27.76
2023-05-08T11:25:46.373Z,28.35
2023-05-08T11:28:58.803Z,28.36
2023-05-08T11:32:02.805Z,27.90
2023-05-08T11:35:11.592Z,27.82
2023-05-08T11:38:23.488Z,28.19
2023-05-08T11:41:28.913Z,28.19
2023-05-08T11:44:33.271Z,27.98
2023-05-08T11:47:42.126Z,27.94
2023-05-08T11:50:46.992Z,28.18
2023-05-08T11:53:51.033Z,27.98
2023-05-08T11:56:56.344Z,28.22
2023-05-08T12:00:00.413Z,28.58
2023-05-08T12:03:09.136Z,28.03
2023-05-08T12:06:13.224Z,28.02
2023-05-08T12:09:19.073Z,27.31
2023-05-08T12:12:24.500Z,28.23
2023-05-08T12:15:28.843Z,28.48
2023-05-08T12:18:32.993Z,28.19
2023-05-08T12:21:37.615Z,27.61
2023-05-08T12:24:41.696Z,27.28
2023-05-08T12:27:47.529Z,26.66
2023-05-08T12:30:51.919Z,27.19
2023-05-08T12:33:56.965Z,26.79
2023-05-08T12:37:05.396Z,26.77
2023-05-08T12:40:25.242Z,26.62
2023-05-08T12:43:37.504Z,27.09
2023-05-08T12:46:48.712Z,27.26
2023-05-08T12:49:53.007Z,27.15
2023-05-08T12:53:03.097Z,27.31
2023-05-08T12:56:07.671Z,27.40
2023-05-08T12:59:13.140Z,27.48
2023-05-08T13:02:21.258Z,26.86
2023-05-08T13:05:25.973Z,27.28
2023-05-08T13:08:34.439Z,27.83
2023-05-08T13:11:39.667Z,28.22
2023-05-08T13:14:45.048Z,28.41
2023-05-08T13:17:49.039Z,28.57
2023-05-08T13:20:53.108Z,28.80
2023-05-08T13:23:57.472Z,28.52
2023-05-08T13:27:01.393Z,28.01
2023-05-08T13:30:08.237Z,27.48
2023-05-08T13:33:12.346Z,27.21
2023-05-08T13:36:16.401Z,26.95
2023-05-08T13:39:20.366Z,26.97
2023-05-08T13:42:24.345Z,26.73
2023-05-08T13:45:30.061Z,26.78
2023-05-08T13:48:34.020Z,26.69
2023-05-08T13:51:38.089Z,27.37
2023-05-08T13:54:41.996Z,27.56
2023-05-08T13:57:46.092Z,27.57
2023-05-08T14:00:51.643Z,27.33
2023-05-08T14:03:55.855Z,27.30
2023-05-08T14:06:59.998Z,27.74
2023-05-08T14:10:04.093Z,27.44
2023-05-08T14:13:08.124Z,27.15
2023-05-08T14:16:14.684Z,27.33
2023-05-08T14:19:18.860Z,27.52
2023-05-08T14:22:22.975Z,27.40
2023-05-08T14:25:27.007Z,27.61
2023-05-08T14:28:31.008Z,27.67
2023-05-08T14:31:36.261Z,27.66
2023-05-08T14:34:40.223Z,27.38
2023-05-08T14:37:44.053Z,27.04
2023-05-08T14:40:51.145Z,26.77
2023-05-08T14:43:54.978Z,26.29
2023-05-08T14:47:00.313Z,26.24
2023-05-08T14:50:04.191Z,26.14
2023-05-08T14:53:08.119Z,25.84
2023-05-08T14:56:12.095Z,25.72
2023-05-08T14:59:16.307Z,25.72
2023-05-08T15:02:21.647Z,25.60
2023-05-08T15:05:25.683Z,25.43
2023-05-08T15:08:29.795Z,25.23
2023-05-08T15:11:33.855Z,25.28
2023-05-08T15:14:37.633Z,25.00
2023-05-08T15:17:42.928Z,24.94
2023-05-08T15:20:46.799Z,24.88
2023-05-08T15:23:50.697Z,24.82
2023-05-08T15:26:54.530Z,24.68
2023-05-08T15:29:59.159Z,24.68
2023-05-08T15:33:04.478Z,24.56
2023-05-08T15:36:08.816Z,24.33
2023-05-08T15:39:12.837Z,24.13
2023-05-08T15:42:16.744Z,24.01
2023-05-08T15:45:20.714Z,23.81
2023-05-08T15:48:26.120Z,23.52
2023-05-08T15:51:30.112Z,23.54
2023-05-08T15:54:33.898Z,23.48
2023-05-08T15:57:37.741Z,23.65
2023-05-08T16:00:45.270Z,23.57
2023-05-08T16:03:51.052Z,23.42
2023-05-08T16:06:56.158Z,23.54
2023-05-08T16:09:59.937Z,23.62
2023-05-08T16:13:03.849Z,23.29
2023-05-08T16:16:08.256Z,23.48
2023-05-08T16:19:13.572Z,23.46
2023-05-08T16:22:17.570Z,23.53
2023-05-08T16:25:21.543Z,23.38
2023-05-08T16:28:25.541Z,23.22
2023-05-08T16:31:29.656Z,23.02
2023-05-08T16:34:36.294Z,22.72
2023-05-08T16:37:40.246Z,22.42
2023-05-08T16:40:45.303Z,22.07
2023-05-08T16:43:49.264Z,21.93
2023-05-08T16:46:53.252Z,21.08
2023-05-08T16:49:58.733Z,21.12
2023-05-08T16:53:03.776Z,20.44
2023-05-08T16:56:08.471Z,20.46
2023-05-08T16:59:12.343Z,20.51
2023-05-08T17:02:19.334Z,20.81
2023-05-08T17:05:25.262Z,20.99
2023-05-08T17:08:29.238Z,20.54
2023-05-08T17:11:33.244Z,20.58
2023-05-08T17:14:38.311Z,20.69
2023-05-08T17:17:42.680Z,20.93
2023-05-08T17:20:49.609Z,20.92
2023-05-08T17:23:53.540Z,21.02
2023-05-08T17:26:57.460Z,21.10
2023-05-08T17:30:01.322Z,21.11
2023-05-08T17:33:05.405Z,21.08
2023-05-08T17:36:11.661Z,21.17
2023-05-08T17:39:15.935Z,21.04
2023-05-08T17:42:19.790Z,20.98
2023-05-08T17:45:23.745Z,20.84
2023-05-08T17:48:27.593Z,20.92
2023-05-08T17:51:33.017Z,20.94
2023-05-08T17:54:36.804Z,20.90
2023-05-08T17:57:41.262Z,20.94
2023-05-08T18:00:45.103Z,21.07
2023-05-08T18:03:49.228Z,20.91
2023-05-08T18:06:54.588Z,20.61
2023-05-08T18:09:58.486Z,20.44
2023-05-08T18:13:02.300Z,20.25
2023-05-08T18:16:06.260Z,20.41
2023-05-08T18:19:10.224Z,20.22
2023-05-08T18:22:15.825Z,20.16
2023-05-08T18:25:19.874Z,20.21
2023-05-08T18:28:23.762Z,20.14
2023-05-08T18:31:27.773Z,19.77
2023-05-08T18:34:32.728Z,19.92
2023-05-08T18:37:38.011Z,19.76
2023-05-08T18:40:41.855Z,19.56
2023-05-08T18:43:45.760Z,19.34
2023-05-08T18:46:49.666Z,19.25
2023-05-08T18:49:53.786Z,19.32
2023-05-08T18:52:59.888Z,19.41
2023-05-08T18:56:04.773Z,19.41
2023-05-08T18:59:08.970Z,19.48
2023-05-08T19:02:12.891Z,19.06
2023-05-08T19:05:16.855Z,18.82
2023-05-08T19:08:22.233Z,18.64
2023-05-08T19:11:26.316Z,18.36
2023-05-08T19:14:30.144Z,18.22
2023-05-08T19:17:35.165Z,18.39
2023-05-08T19:20:38.990Z,18.33
2023-05-08T19:23:44.372Z,18.47
2023-05-08T19:26:48.426Z,18.38
2023-05-08T19:29:52.478Z,18.11
2023-05-08T19:32:56.381Z,18.25
2023-05-08T19:36:00.265Z,18.08
2023-05-08T19:39:05.765Z,17.74
2023-05-08T19:42:10.804Z,17.16
2023-05-08T19:45:16.572Z,17.15
2023-05-08T19:48:20.594Z,17.01
2023-05-08T19:51:24.580Z,16.79
2023-05-08T19:54:30.366Z,16.91
2023-05-08T19:57:34.244Z,16.64
2023-05-08T20:00:38.242Z,16.59
2023-05-08T20:03:42.193Z,16.70
2023-05-08T20:06:46.284Z,16.53
2023-05-08T20:09:51.537Z,16.61
2023-05-08T20:12:55.529Z,16.53
2023-05-08T20:15:59.929Z,16.80
2023-05-08T20:19:03.945Z,16.59
2023-05-08T20:22:07.839Z,16.17
2023-05-08T20:25:13.014Z,16.22
2023-05-08T20:28:22.416Z,15.86
2023-05-08T20:31:27.984Z,15.92
2023-05-08T20:34:31.990Z,15.90
2023-05-08T20:37:36.585Z,15.95
2023-05-08T20:40:42.492Z,15.83
2023-05-08T20:43:46.421Z,15.75
2023-05-08T20:46:51.507Z,16.12
2023-05-08T20:49:55.708Z,15.87
2023-05-08T20:52:59.547Z,15.99
2023-05-08T20:56:05.633Z,16.07
2023-05-08T20:59:09.681Z,15.73
2023-05-08T21:02:13.456Z,15.62
2023-05-08T21:05:17.340Z,15.44
2023-05-08T21:08:23.945Z,15.07
2023-05-08T21:11:29.233Z,14.96
2023-05-08T21:14:33.084Z,15.13
2023-05-08T21:17:36.991Z,14.82
2023-05-08T21:20:40.822Z,14.88
2023-05-08T21:23:44.738Z,14.64
2023-05-08T21:26:50.091Z,14.50
2023-05-08T21:29:53.960Z,14.92
2023-05-08T21:32:57.850Z,14.86
2023-05-08T21:36:02.817Z,14.87
2023-05-08T21:39:06.782Z,14.86
2023-05-08T21:42:12.815Z,15.00
2023-05-08T21:45:16.620Z,15.07
2023-05-08T21:48:20.470Z,15.30
2023-05-08T21:51:24.334Z,14.61
2023-05-08T21:54:28.150Z,14.82
2023-05-08T21:57:33.601Z,14.73
2023-05-08T22:00:37.449Z,14.98
2023-05-08T22:03:41.428Z,14.57
2023-05-08T22:06:45.267Z,14.89
2023-05-08T22:09:49.022Z,14.49
2023-05-08T22:12:54.347Z,14.27
2023-05-08T22:15:58.288Z,14.36
2023-05-08T22:19:02.132Z,14.63
2023-05-08T22:22:06.255Z,14.73
2023-05-08T22:25:10.921Z,15.08
2023-05-08T22:28:16.166Z,15.18
2023-05-08T22:31:20.110Z,15.19
2023-05-08T22:34:23.953Z,14.82
2023-05-08T22:37:27.741Z,14.99
2023-05-08T22:40:31.672Z,14.93
2023-05-08T22:43:38.198Z,14.61
2023-05-08T22:46:42.382Z,15.01
2023-05-08T22:49:46.583Z,14.70
2023-05-08T22:52:50.423Z,14.59
2023-05-08T22:55:54.164Z,14.47
2023-05-08T22:58:59.414Z,14.94
2023-05-08T23:02:03.228Z,14.57
2023-05-08T23:05:08.279Z,14.88
2023-05-08T23:08:12.201Z,14.88
2023-05-08T23:11:16.038Z,14.89
2023-05-08T23:14:21.331Z,15.01
2023-05-08T23:17:25.169Z,14.51
2023-05-08T23:20:29.114Z,14.42
2023-05-08T23:23:33.142Z,14.80
2023-05-08T23:26:36.827Z,14.73
2023-05-08T23:29:42.090Z,14.56
2023-05-08T23:32:46.543Z,14.73
2023-05-08T23:35:50.373Z,14.80
2023-05-08T23:38:54.134Z,14.78
2023-05-08T23:41:57.934Z,14.84
2023-05-08T23:45:02.949Z,14.71
2023-05-08T23:48:07.076Z,14.59
2023-05-08T23:51:10.889Z,14.71
2023-05-08T23:54:15.424Z,15.03
2023-05-08T23:57:19.241Z,14.75
